createdAt,value
2023-02-02T00:02:39.769Z,11.40
2023-02-02T00:07:01.680Z,9.60
2023-02-02T00:11:10.594Z,11.10
2023-02-02T00:15:13.088Z,9.80
2023-02-02T00:19:24.467Z,10.70
2023-02-02T00:22:38.819Z,11.50
2023-02-02T00:27:09.128Z,13.50
2023-02-02T00:30:51.213Z,13.60
2023-02-02T00:35:03.350Z,14.60
2023-02-02T00:39:32.218Z,10.90
2023-02-02T00:43:41.420Z,13.20
2023-02-02T00:47:23.164Z,12.00
2023-02-02T00:51:33.412Z,15.10
2023-02-02T00:55:42.323Z,11.60
2023-02-02T00:59:31.432Z,13.70
2023-02-02T01:03:20.224Z,12.70
2023-02-02T01:07:09.705Z,11.80
2023-02-02T01:10:58.947Z,11.10
2023-02-02T01:14:39.654Z,10.90
2023-02-02T01:18:29.611Z,10.30
2023-02-02T01:25:39.029Z,9.90
2023-02-02T01:29:28.917Z,14.20
2023-02-02T01:33:18.347Z,9.60
2023-02-02T01:37:09.114Z,10.20
2023-02-02T01:41:18.970Z,9.30
2023-02-02T01:45:05.929Z,8.40
2023-02-02T01:48:55.103Z,9.00
2023-02-02T01:52:45.124Z,10.50
2023-02-02T01:56:33.256Z,11.50
2023-02-02T02:00:47.025Z,11.40
2023-02-02T02:04:31.571Z,9.20
2023-02-02T02:08:34.018Z,12.60
2023-02-02T02:12:22.927Z,11.20
2023-02-02T02:16:14.083Z,11.10
2023-02-02T02:20:19.189Z,10.70
2023-02-02T02:24:09.848Z,11.10
2023-02-02T02:28:05.389Z,8.90
2023-02-02T02:32:03.664Z,8.40
2023-02-02T02:36:03.344Z,8.90
2023-02-02T02:40:01.242Z,7.90
2023-02-02T02:43:50.288Z,10.70
2023-02-02T02:47:43.040Z,6.80
2023-02-02T02:51:20.986Z,5.20
2023-02-02T02:55:22.402Z,6.00
2023-02-02T02:58:56.801Z,5.60
2023-02-02T03:02:22.017Z,8.50
2023-02-02T03:06:30.341Z,6.20
2023-02-02T03:10:19.198Z,6.50
2023-02-02T03:14:00.981Z,6.80
2023-02-02T03:17:42.429Z,9.50
2023-02-02T03:21:08.763Z,7.60
2023-02-02T03:24:43.356Z,8.70
2023-02-02T03:28:24.696Z,9.10
2023-02-02T03:32:32.596Z,11.30
2023-02-02T03:40:16.876Z,10.50
2023-02-02T03:44:43.373Z,14.20
2023-02-02T03:48:08.817Z,15.10
2023-02-02T03:51:50.192Z,12.80
2023-02-02T03:55:39.337Z,14.70
2023-02-02T03:59:25.929Z,12.80
2023-02-02T04:03:38.592Z,8.30
2023-02-02T04:07:47.698Z,14.70
2023-02-02T04:11:35.841Z,17.90
2023-02-02T04:15:24.775Z,17.70
2023-02-02T04:19:13.741Z,10.10
2023-02-02T04:23:02.640Z,12.80
2023-02-02T04:26:51.929Z,15.40
2023-02-02T04:31:01.436Z,11.20
2023-02-02T04:35:11.649Z,10.90
2023-02-02T04:39:21.826Z,14.10
2023-02-02T04:43:30.824Z,8.60
2023-02-02T04:47:52.616Z,11.80
2023-02-02T04:52:21.729Z,9.60
2023-02-02T04:55:52.828Z,13.80
2023-02-02T05:00:02.325Z,15.00
2023-02-02T05:03:52.347Z,15.00
2023-02-02T05:08:01.845Z,13.90
2023-02-02T05:12:30.986Z,11.20
2023-02-02T05:16:13.507Z,7.90
2023-02-02T05:20:22.814Z,8.80
2023-02-02T05:24:12.411Z,15.80
2023-02-02T05:28:01.746Z,13.40
2023-02-02T05:31:31.376Z,11.80
2023-02-02T05:35:41.286Z,9.40
2023-02-02T05:39:50.438Z,15.50
2023-02-02T05:43:21.466Z,18.00
2023-02-02T05:47:28.080Z,16.20
2023-02-02T05:51:17.422Z,16.80
2023-02-02T05:54:57.502Z,11.20
2023-02-02T05:59:26.886Z,9.50
2023-02-02T06:03:36.076Z,9.70
2023-02-02T06:07:17.612Z,9.60
2023-02-02T06:11:18.814Z,13.50
2023-02-02T06:14:59.135Z,16.20
2023-02-02T06:19:06.783Z,9.20
2023-02-02T06:22:14.919Z,13.90
2023-02-02T06:26:18.204Z,8.10
2023-02-02T06:29:56.904Z,8.20
2023-02-02T06:33:51.199Z,12.00
2023-02-02T06:37:50.038Z,11.40
2023-02-02T06:41:42.197Z,12.80
2023-02-02T06:45:52.454Z,10.20
2023-02-02T06:50:01.436Z,14.10
2023-02-02T06:54:10.736Z,9.20
2023-02-02T06:58:13.176Z,8.80
2023-02-02T07:02:29.071Z,9.30
2023-02-02T07:06:39.700Z,9.50
2023-02-02T07:11:14.737Z,5.40
2023-02-02T07:15:11.492Z,9.70
2023-02-02T07:18:53.139Z,6.60
2023-02-02T07:23:02.244Z,13.90
2023-02-02T07:26:51.106Z,8.60
2023-02-02T07:30:53.030Z,18.10
2023-02-02T07:34:42.144Z,23.10
2023-02-02T07:39:09.854Z,29.40
2023-02-02T07:43:20.945Z,20.00
2023-02-02T07:47:32.722Z,27.10
2023-02-02T07:51:22.640Z,23.60
2023-02-02T07:55:14.868Z,20.80
2023-02-02T07:59:41.028Z,11.20
2023-02-02T08:04:13.039Z,10.90
2023-02-02T08:08:42.729Z,18.30
2023-02-02T08:12:52.903Z,18.20
2023-02-02T08:16:42.073Z,18.40
2023-02-02T08:20:51.281Z,14.30
2023-02-02T08:24:44.294Z,7.90
2023-02-02T08:29:02.137Z,11.50
2023-02-02T08:32:52.495Z,9.20
2023-02-02T08:36:42.254Z,8.70
2023-02-02T08:41:12.524Z,9.50
2023-02-02T08:46:03.947Z,8.10
2023-02-02T08:49:51.117Z,7.10
2023-02-02T08:53:40.342Z,8.50
2023-02-02T08:57:40.514Z,5.50
2023-02-02T09:01:29.392Z,3.50
2023-02-02T09:05:58.832Z,5.30
2023-02-02T09:10:09.811Z,10.80
2023-02-02T09:14:02.338Z,7.30
2023-02-02T09:17:51.446Z,10.60
2023-02-02T09:22:00.571Z,10.70
2023-02-02T09:25:38.333Z,9.70
2023-02-02T09:29:29.636Z,10.50
2023-02-02T09:33:59.163Z,6.50
2023-02-02T09:38:10.033Z,8.80
2023-02-02T09:42:05.300Z,6.70
2023-02-02T09:46:36.595Z,9.20
2023-02-02T09:50:20.520Z,8.90
2023-02-02T09:54:22.503Z,8.60
2023-02-02T09:58:14.205Z,7.00
2023-02-02T10:02:23.755Z,8.50
2023-02-02T10:06:35.728Z,9.30
2023-02-02T10:10:53.885Z,6.50
2023-02-02T10:15:05.601Z,8.10
2023-02-02T10:18:46.999Z,5.20
2023-02-02T10:22:41.184Z,4.10
2023-02-02T10:30:42.377Z,6.70
2023-02-02T10:35:06.814Z,4.70
2023-02-02T10:39:18.869Z,8.50
2023-02-02T10:43:38.002Z,3.90
2023-02-02T10:47:46.959Z,6.70
2023-02-02T10:52:06.813Z,5.80
2023-02-02T10:55:56.877Z,6.30
2023-02-02T11:00:02.804Z,5.80
2023-02-02T11:04:33.050Z,7.60
2023-02-02T11:08:20.822Z,6.40
2023-02-02T11:12:17.464Z,6.90
2023-02-02T11:16:38.772Z,4.30
2023-02-02T11:20:31.074Z,7.00
2023-02-02T11:24:45.708Z,7.80
2023-02-02T11:28:59.847Z,5.70
2023-02-02T11:33:26.425Z,7.20
2023-02-02T11:38:03.958Z,10.90
2023-02-02T11:41:58.058Z,7.30
2023-02-02T11:46:27.114Z,6.70
2023-02-02T11:50:35.853Z,8.50
2023-02-02T11:54:43.015Z,11.10
2023-02-02T11:58:50.017Z,10.50
2023-02-02T12:03:21.659Z,12.70
2023-02-02T12:08:06.714Z,15.10
2023-02-02T12:11:50.526Z,15.50
2023-02-02T12:16:09.156Z,13.10
2023-02-02T12:20:46.635Z,8.70
2023-02-02T12:24:57.272Z,12.40
2023-02-02T12:29:02.690Z,12.10
2023-02-02T12:33:20.298Z,7.30
2023-02-02T12:37:56.153Z,9.60
2023-02-02T12:41:54.964Z,10.70
2023-02-02T12:46:06.800Z,7.70
2023-02-02T12:49:54.065Z,6.20
2023-02-02T12:54:33.454Z,7.60
2023-02-02T12:57:46.710Z,7.60
2023-02-02T13:02:03.486Z,5.40
2023-02-02T13:06:24.954Z,5.30
2023-02-02T13:10:17.160Z,3.10
2023-02-02T13:14:32.272Z,7.30
2023-02-02T13:18:22.111Z,3.60
2023-02-02T13:22:17.303Z,9.00
2023-02-02T13:26:19.535Z,4.20
2023-02-02T13:30:29.912Z,6.40
2023-02-02T13:34:42.574Z,9.00
2023-02-02T13:39:00.235Z,4.90
2023-02-02T13:42:48.950Z,5.60
2023-02-02T13:47:20.196Z,5.90
2023-02-02T13:51:47.143Z,7.10
2023-02-02T13:56:14.027Z,7.70
2023-02-02T14:00:27.277Z,5.10
2023-02-02T14:04:35.214Z,5.10
2023-02-02T14:08:27.136Z,7.50
2023-02-02T14:12:56.108Z,5.10
2023-02-02T14:17:25.647Z,8.40
2023-02-02T14:21:39.807Z,6.80
2023-02-02T14:25:41.494Z,7.80
2023-02-02T14:29:39.826Z,10.70
2023-02-02T14:34:09.466Z,7.50
2023-02-02T14:38:21.974Z,7.10
2023-02-02T14:42:54.591Z,6.30
2023-02-02T14:47:18.908Z,4.80
2023-02-02T14:51:43.105Z,3.90
2023-02-02T14:55:58.467Z,5.40
2023-02-02T15:00:11.909Z,3.40
2023-02-02T15:04:12.129Z,4.60
2023-02-02T15:08:43.903Z,6.00
2023-02-02T15:12:42.062Z,6.70
2023-02-02T15:16:31.223Z,9.50
2023-02-02T15:20:44.488Z,5.90
2023-02-02T15:24:39.466Z,1.70
2023-02-02T15:29:10.115Z,1.70
2023-02-02T15:33:21.990Z,2.80
2023-02-02T15:37:33.532Z,2.60
2023-02-02T15:42:08.223Z,4.10
2023-02-02T15:45:56.048Z,3.20
2023-02-02T15:54:39.285Z,3.00
2023-02-02T15:59:07.207Z,4.10
2023-02-02T16:03:22.000Z,4.30
2023-02-02T16:07:11.149Z,5.30
2023-02-02T16:11:52.441Z,8.80
2023-02-02T16:15:32.439Z,4.40
2023-02-02T16:19:38.940Z,6.60
2023-02-02T16:23:04.198Z,3.50
2023-02-02T16:30:27.835Z,5.20
2023-02-02T16:34:46.593Z,2.90
2023-02-02T16:38:18.740Z,5.40
2023-02-02T16:41:54.852Z,2.90
2023-02-02T16:48:20.786Z,4.00
2023-02-02T16:52:10.247Z,4.40
2023-02-02T16:55:51.898Z,4.80
2023-02-02T17:00:16.135Z,8.10
2023-02-02T17:07:44.212Z,6.50
2023-02-02T17:11:18.653Z,6.10
2023-02-02T17:14:56.567Z,8.40
2023-02-02T17:18:25.981Z,8.10
2023-02-02T17:22:27.668Z,6.60
2023-02-02T17:26:16.876Z,7.90
2023-02-02T17:30:19.690Z,8.70
2023-02-02T17:34:10.540Z,8.00
2023-02-02T17:38:19.896Z,8.30
2023-02-02T17:42:23.352Z,9.60
2023-02-02T17:46:18.268Z,10.00
2023-02-02T17:50:01.881Z,10.60
2023-02-02T17:53:37.033Z,8.70
2023-02-02T17:56:47.969Z,10.30
2023-02-02T18:00:32.059Z,7.40
2023-02-02T18:04:14.760Z,8.20
2023-02-02T18:08:20.418Z,7.10
2023-02-02T18:12:09.607Z,7.20
2023-02-02T18:16:11.139Z,8.80
2023-02-02T18:19:21.733Z,7.20
2023-02-02T18:23:17.957Z,6.90
2023-02-02T18:27:09.449Z,7.50
2023-02-02T18:31:28.989Z,7.40
2023-02-02T18:35:10.831Z,6.50
2023-02-02T18:38:01.735Z,6.30
2023-02-02T18:41:02.599Z,7.60
2023-02-02T18:44:42.649Z,6.60
2023-02-02T18:48:01.811Z,4.60
2023-02-02T18:51:18.910Z,7.40
2023-02-02T18:54:47.763Z,8.60
2023-02-02T18:58:22.035Z,6.20
2023-02-02T19:02:51.249Z,5.70
2023-02-02T19:06:58.446Z,5.30
2023-02-02T19:10:49.971Z,8.00
2023-02-02T19:14:32.286Z,5.40
2023-02-02T19:18:29.276Z,4.10
2023-02-02T19:22:03.556Z,6.70
2023-02-02T19:25:34.741Z,5.10
2023-02-02T19:29:11.834Z,5.60
2023-02-02T19:33:06.039Z,4.90
2023-02-02T19:36:30.945Z,6.60
2023-02-02T19:39:44.745Z,7.50
2023-02-02T19:43:20.646Z,6.40
2023-02-02T19:47:11.291Z,10.10
2023-02-02T19:51:13.083Z,6.20
2023-02-02T19:55:21.236Z,5.80
2023-02-02T19:58:45.426Z,6.90
2023-02-02T20:01:47.762Z,8.30
2023-02-02T20:06:13.001Z,7.60
2023-02-02T20:10:00.165Z,9.60
2023-02-02T20:17:45.100Z,10.40
2023-02-02T20:21:44.551Z,7.80
2023-02-02T20:25:09.916Z,8.40
2023-02-02T20:29:18.890Z,10.30
2023-02-02T20:32:50.576Z,9.00
2023-02-02T20:36:32.217Z,5.20
2023-02-02T20:40:15.744Z,9.40
2023-02-02T20:44:36.814Z,9.80
2023-02-02T20:49:06.754Z,6.60
2023-02-02T20:52:36.363Z,7.40
2023-02-02T20:56:37.038Z,11.70
2023-02-02T20:59:59.661Z,6.50
2023-02-02T21:03:49.960Z,10.70
2023-02-02T21:07:08.615Z,9.70
2023-02-02T21:11:23.081Z,7.80
2023-02-02T21:14:53.790Z,10.20
2023-02-02T21:18:31.599Z,7.40
2023-02-02T21:22:11.810Z,9.80
2023-02-02T21:25:22.780Z,12.70
2023-02-02T21:29:02.015Z,11.00
2023-02-02T21:32:35.039Z,11.30
2023-02-02T21:36:28.493Z,10.60
2023-02-02T21:40:32.234Z,12.00
2023-02-02T21:44:19.374Z,9.90
2023-02-02T21:47:32.834Z,9.20
2023-02-02T21:51:06.026Z,13.00
2023-02-02T21:54:16.530Z,9.30
2023-02-02T21:57:45.393Z,11.00
2023-02-02T22:01:16.275Z,7.90
2023-02-02T22:08:36.397Z,10.50
2023-02-02T22:12:16.698Z,10.20
2023-02-02T22:15:50.785Z,7.70
2023-02-02T22:19:59.232Z,12.40
2023-02-02T22:23:49.077Z,9.70
2023-02-02T22:27:01.652Z,10.60
2023-02-02T22:30:24.137Z,9.70
2023-02-02T22:37:11.089Z,6.50
2023-02-02T22:40:39.258Z,10.10
2023-02-02T22:44:10.955Z,6.00
2023-02-02T22:47:24.306Z,8.30
2023-02-02T22:51:19.600Z,6.00
2023-02-02T22:55:32.401Z,9.90
2023-02-02T22:59:27.460Z,10.70
2023-02-02T23:03:16.269Z,3.90
2023-02-02T23:06:58.050Z,7.50
2023-02-02T23:10:44.171Z,5.00
2023-02-02T23:13:38.438Z,6.20
2023-02-02T23:17:43.829Z,7.70
2023-02-02T23:21:01.362Z,9.00
2023-02-02T23:25:00.735Z,8.00
2023-02-02T23:28:14.291Z,14.20
2023-02-02T23:32:05.906Z,9.00
2023-02-02T23:36:25.803Z,8.30
2023-02-02T23:39:09.360Z,6.90
2023-02-02T23:42:32.029Z,9.20
2023-02-02T23:45:46.768Z,9.80
2023-02-02T23:48:53.609Z,7.20
2023-02-02T23:51:50.566Z,5.50
2023-02-02T23:55:20.072Z,5.30
2023-02-02T23:59:33.747Z,9.50
